createdAt,value
2023-05-03T00:00:31.108Z,51.00
2023-05-03T00:03:01.021Z,50.96
2023-05-03T00:05:30.167Z,51.14
2023-05-03T00:08:00.907Z,50.63
2023-05-03T00:10:32.544Z,50.63
2023-05-03T00:13:03.286Z,50.59
2023-05-03T00:15:32.673Z,50.54
2023-05-03T00:18:04.103Z,50.47
2023-05-03T00:20:33.324Z,50.40
2023-05-03T00:23:02.913Z,50.53
2023-05-03T00:25:32.287Z,50.21
2023-05-03T00:28:08.992Z,49.98
2023-05-03T00:30:41.063Z,49.64
2023-05-03T00:33:10.413Z,49.79
2023-05-03T00:35:39.875Z,49.83
2023-05-03T00:38:08.977Z,49.95
2023-05-03T00:40:38.252Z,49.71
2023-05-03T00:43:08.954Z,49.50
2023-05-03T00:45:38.193Z,49.49
2023-05-03T00:48:09.974Z,50.05
2023-05-03T00:50:40.394Z,50.01
2023-05-03T00:53:10.039Z,49.72
2023-05-03T00:55:39.165Z,50.07
2023-05-03T00:58:10.921Z,50.25
2023-05-03T01:00:40.225Z,50.64
2023-05-03T01:03:09.409Z,50.68
2023-05-03T01:05:47.114Z,50.39
2023-05-03T01:08:25.412Z,50.75
2023-05-03T01:11:04.195Z,50.84
2023-05-03T01:13:45.329Z,51.41
2023-05-03T01:16:22.320Z,51.51
2023-05-03T01:18:53.625Z,51.41
2023-05-03T01:21:24.290Z,51.66
2023-05-03T01:24:01.481Z,52.14
2023-05-03T01:26:33.742Z,51.95
2023-05-03T01:29:03.246Z,52.36
2023-05-03T01:31:41.979Z,52.71
2023-05-03T01:34:24.962Z,52.65
2023-05-03T01:36:59.252Z,52.94
2023-05-03T01:39:42.307Z,53.04
2023-05-03T01:42:15.793Z,53.02
2023-05-03T01:44:45.877Z,53.37
2023-05-03T01:47:16.168Z,53.40
2023-05-03T01:49:45.093Z,53.55
2023-05-03T01:52:14.219Z,53.86
2023-05-03T01:54:43.619Z,53.76
2023-05-03T01:57:16.640Z,53.60
2023-05-03T01:59:45.840Z,53.98
2023-05-03T02:02:15.100Z,53.74
2023-05-03T02:04:44.114Z,53.87
2023-05-03T02:07:13.498Z,54.67
2023-05-03T02:09:43.033Z,54.87
2023-05-03T02:12:12.911Z,54.92
2023-05-03T02:14:43.733Z,55.12
2023-05-03T02:17:13.521Z,55.79
2023-05-03T02:19:44.677Z,55.86
2023-05-03T02:22:14.041Z,56.00
2023-05-03T02:24:43.576Z,56.08
2023-05-03T02:27:12.814Z,56.63
2023-05-03T02:29:43.894Z,57.21
2023-05-03T02:32:13.536Z,57.78
2023-05-03T02:34:42.706Z,58.11
2023-05-03T02:37:12.671Z,58.82
2023-05-03T02:39:41.727Z,59.45
2023-05-03T02:42:14.335Z,60.15
2023-05-03T02:44:46.555Z,60.52
2023-05-03T02:47:16.226Z,61.67
2023-05-03T02:49:48.309Z,61.08
2023-05-03T02:52:18.311Z,61.49
2023-05-03T02:54:49.566Z,61.34
2023-05-03T02:57:19.383Z,62.51
2023-05-03T02:59:50.237Z,62.07
2023-05-03T03:02:19.700Z,63.11
2023-05-03T03:04:49.319Z,62.77
2023-05-03T03:07:20.147Z,63.28
2023-05-03T03:09:54.182Z,63.67
2023-05-03T03:12:24.031Z,64.41
2023-05-03T03:14:55.971Z,64.60
2023-05-03T03:17:25.278Z,65.18
2023-05-03T03:19:54.874Z,65.61
2023-05-03T03:22:23.947Z,64.17
2023-05-03T03:24:53.024Z,65.34
2023-05-03T03:27:24.161Z,66.04
2023-05-03T03:29:53.208Z,64.03
2023-05-03T03:32:23.528Z,65.23
2023-05-03T03:34:52.946Z,65.03
2023-05-03T03:37:25.733Z,65.22
2023-05-03T03:39:55.061Z,64.71
2023-05-03T03:42:26.068Z,65.93
2023-05-03T03:44:55.646Z,67.55
2023-05-03T03:47:26.654Z,66.36
2023-05-03T03:49:56.083Z,66.76
2023-05-03T03:52:25.532Z,65.94
2023-05-03T03:54:54.920Z,68.32
2023-05-03T03:57:30.682Z,67.80
2023-05-03T04:00:01.304Z,67.98
2023-05-03T04:02:43.555Z,70.27
2023-05-03T04:05:18.874Z,71.17
2023-05-03T04:07:49.088Z,71.03
2023-05-03T04:10:19.876Z,69.97
2023-05-03T04:12:49.213Z,70.70
2023-05-03T04:15:21.682Z,69.29
2023-05-03T04:18:02.037Z,68.08
2023-05-03T04:20:45.975Z,68.79
2023-05-03T04:23:35.154Z,66.44
2023-05-03T04:26:06.574Z,65.43
2023-05-03T04:28:39.046Z,65.60
2023-05-03T04:31:10.054Z,64.12
2023-05-03T04:33:41.410Z,63.22
2023-05-03T04:36:17.133Z,61.76
2023-05-03T04:38:49.374Z,60.34
2023-05-03T04:41:20.029Z,59.22
2023-05-03T04:43:50.364Z,58.67
2023-05-03T04:46:19.826Z,58.18
2023-05-03T04:48:51.437Z,57.48
2023-05-03T04:51:20.724Z,56.26
2023-05-03T04:53:52.231Z,56.38
2023-05-03T04:56:26.456Z,55.41
2023-05-03T04:59:03.115Z,53.88
2023-05-03T05:01:35.588Z,52.14
2023-05-03T05:04:10.857Z,52.63
2023-05-03T05:06:48.697Z,52.82
2023-05-03T05:09:23.479Z,52.63
2023-05-03T05:11:57.022Z,52.61
2023-05-03T05:14:29.346Z,52.84
2023-05-03T05:17:00.331Z,52.86
2023-05-03T05:19:31.294Z,52.48
2023-05-03T05:22:01.410Z,52.79
2023-05-03T05:24:41.802Z,52.46
2023-05-03T05:27:13.684Z,52.89
2023-05-03T05:29:44.172Z,52.70
2023-05-03T05:32:14.104Z,51.90
2023-05-03T05:34:51.498Z,52.07
2023-05-03T05:37:21.266Z,51.65
2023-05-03T05:39:51.135Z,51.02
2023-05-03T05:42:23.572Z,50.32
2023-05-03T05:44:53.218Z,50.69
2023-05-03T05:47:23.611Z,49.97
2023-05-03T05:49:56.993Z,49.25
2023-05-03T05:52:26.537Z,48.93
2023-05-03T05:54:56.838Z,48.67
2023-05-03T05:57:26.236Z,47.79
2023-05-03T05:59:56.565Z,47.03
2023-05-03T06:02:27.113Z,46.49
2023-05-03T06:05:00.871Z,46.84
2023-05-03T06:07:30.550Z,46.53
2023-05-03T06:09:59.935Z,46.17
2023-05-03T06:12:30.266Z,46.38
2023-05-03T06:15:02.757Z,46.35
2023-05-03T06:17:37.233Z,46.18
2023-05-03T06:20:14.628Z,46.06
2023-05-03T06:22:45.288Z,46.10
2023-05-03T06:25:17.537Z,45.36
2023-05-03T06:27:50.198Z,45.57
2023-05-03T06:30:23.877Z,45.33
2023-05-03T06:32:53.655Z,44.29
2023-05-03T06:35:27.761Z,44.05
2023-05-03T06:37:59.401Z,43.51
2023-05-03T06:40:28.870Z,43.04
2023-05-03T06:42:59.429Z,41.72
2023-05-03T06:45:43.817Z,41.69
2023-05-03T06:48:13.332Z,41.01
2023-05-03T06:50:45.677Z,41.02
2023-05-03T06:53:14.877Z,40.11
2023-05-03T06:55:46.213Z,39.83
2023-05-03T06:58:16.958Z,39.06
2023-05-03T07:00:47.104Z,39.09
2023-05-03T07:03:16.694Z,38.04
2023-05-03T07:05:52.313Z,37.26
2023-05-03T07:08:21.818Z,36.35
2023-05-03T07:10:51.305Z,35.57
2023-05-03T07:13:21.558Z,35.39
2023-05-03T07:15:51.016Z,35.27
2023-05-03T07:18:20.701Z,35.28
2023-05-03T07:20:53.316Z,35.33
2023-05-03T07:23:22.593Z,34.61
2023-05-03T07:25:54.069Z,34.76
2023-05-03T07:28:26.232Z,33.47
2023-05-03T07:30:57.813Z,32.90
2023-05-03T07:33:27.540Z,32.95
2023-05-03T07:35:58.281Z,31.96
2023-05-03T07:38:27.313Z,31.63
2023-05-03T07:40:56.848Z,32.16
2023-05-03T07:43:29.389Z,32.55
2023-05-03T07:45:59.871Z,32.92
2023-05-03T07:48:32.355Z,32.58
2023-05-03T07:51:08.719Z,33.12
2023-05-03T07:53:44.422Z,33.54
2023-05-03T07:56:14.182Z,33.20
2023-05-03T07:58:45.061Z,33.02
2023-05-03T08:01:16.224Z,33.35
2023-05-03T08:03:46.496Z,33.53
2023-05-03T08:06:18.984Z,34.03
2023-05-03T08:08:48.461Z,34.20
2023-05-03T08:11:19.243Z,34.88
2023-05-03T08:13:49.101Z,34.75
2023-05-03T08:16:18.407Z,35.04
2023-05-03T08:18:47.921Z,35.27
2023-05-03T08:21:19.457Z,35.58
2023-05-03T08:23:48.903Z,35.55
2023-05-03T08:26:18.119Z,35.35
2023-05-03T08:28:49.943Z,36.11
2023-05-03T08:31:19.339Z,35.88
2023-05-03T08:33:48.604Z,35.72
2023-05-03T08:36:19.032Z,35.60
2023-05-03T08:38:48.566Z,35.62
2023-05-03T08:41:30.476Z,35.22
2023-05-03T08:44:01.000Z,35.99
2023-05-03T08:46:30.814Z,36.25
2023-05-03T08:49:01.310Z,37.10
2023-05-03T08:51:32.660Z,36.91
2023-05-03T08:54:02.268Z,36.82
2023-05-03T08:56:47.857Z,37.03
2023-05-03T08:59:20.220Z,36.08
2023-05-03T09:01:49.674Z,35.95
2023-05-03T09:04:19.048Z,36.29
2023-05-03T09:06:50.086Z,36.17
2023-05-03T09:09:32.821Z,36.61
2023-05-03T09:12:52.009Z,36.54
2023-05-03T09:15:23.329Z,36.53
2023-05-03T09:18:09.085Z,36.67
2023-05-03T09:20:40.270Z,36.30
2023-05-03T09:23:18.601Z,36.60
2023-05-03T09:25:51.489Z,36.70
2023-05-03T09:28:22.291Z,35.64
2023-05-03T09:30:52.063Z,36.98
2023-05-03T09:33:30.648Z,35.67
2023-05-03T09:36:00.766Z,35.94
2023-05-03T09:38:34.945Z,36.37
2023-05-03T09:41:15.133Z,36.35
2023-05-03T09:44:07.885Z,36.21
2023-05-03T09:46:38.748Z,35.72
2023-05-03T09:49:08.481Z,35.49
2023-05-03T09:51:41.904Z,35.00
2023-05-03T09:54:13.341Z,35.20
2023-05-03T09:56:45.124Z,35.64
2023-05-03T09:59:17.799Z,34.91
2023-05-03T10:01:47.971Z,34.99
2023-05-03T10:04:22.434Z,35.43
2023-05-03T10:06:55.562Z,34.97
2023-05-03T10:09:33.856Z,34.55
2023-05-03T10:12:09.852Z,33.86
2023-05-03T10:14:39.427Z,33.46
2023-05-03T10:17:15.229Z,33.90
2023-05-03T10:19:52.746Z,32.15
2023-05-03T10:22:25.451Z,31.24
2023-05-03T10:25:16.064Z,31.66
2023-05-03T10:27:54.348Z,30.99
2023-05-03T10:30:32.840Z,28.79
2023-05-03T10:33:32.723Z,28.83
2023-05-03T10:36:07.334Z,29.11
2023-05-03T10:38:38.684Z,28.68
2023-05-03T10:41:10.319Z,29.14
2023-05-03T10:43:47.294Z,27.15
2023-05-03T10:46:43.697Z,27.88
2023-05-03T10:49:24.178Z,29.91
2023-05-03T10:51:53.921Z,28.91
2023-05-03T10:54:24.719Z,29.30
2023-05-03T10:56:57.717Z,25.97
2023-05-03T10:59:27.330Z,27.43
2023-05-03T11:01:57.320Z,26.72
2023-05-03T11:04:44.777Z,25.85
2023-05-03T11:07:22.156Z,24.67
2023-05-03T11:09:52.069Z,26.96
2023-05-03T11:12:22.701Z,25.59
2023-05-03T11:14:52.100Z,22.71
2023-05-03T11:17:22.638Z,21.84
2023-05-03T11:19:51.939Z,20.87
2023-05-03T11:22:21.356Z,21.29
2023-05-03T11:24:52.903Z,26.21
2023-05-03T11:27:30.704Z,24.98
2023-05-03T11:30:00.707Z,23.53
2023-05-03T11:32:45.037Z,21.42
2023-05-03T11:35:15.567Z,24.57
2023-05-03T11:37:45.249Z,23.22
2023-05-03T11:40:20.327Z,26.14
2023-05-03T11:42:54.918Z,23.51
2023-05-03T11:45:25.905Z,24.57
2023-05-03T11:47:59.489Z,23.53
2023-05-03T11:50:44.564Z,22.28
2023-05-03T11:53:14.323Z,23.35
2023-05-03T11:55:46.426Z,22.76
2023-05-03T11:58:19.064Z,25.30
2023-05-03T12:00:50.159Z,22.71
2023-05-03T12:03:20.881Z,21.26
2023-05-03T12:05:52.519Z,21.37
2023-05-03T12:08:25.431Z,19.93
2023-05-03T12:10:58.057Z,19.82
2023-05-03T12:13:37.717Z,22.35
2023-05-03T12:16:15.687Z,21.77
2023-05-03T12:18:51.713Z,22.26
2023-05-03T12:23:56.349Z,21.13
2023-05-03T12:26:27.681Z,23.57
2023-05-03T12:29:02.211Z,22.70
2023-05-03T12:31:35.268Z,21.22
2023-05-03T12:34:30.999Z,24.53
2023-05-03T12:36:56.422Z,22.43
2023-05-03T12:39:27.568Z,21.74
2023-05-03T12:42:07.067Z,21.46
2023-05-03T12:44:47.927Z,19.94
2023-05-03T12:47:26.954Z,20.53
2023-05-03T12:50:00.111Z,19.99
2023-05-03T12:55:17.762Z,23.12
2023-05-03T12:58:18.256Z,21.51
2023-05-03T13:03:32.807Z,20.79
2023-05-03T13:06:12.740Z,23.89
2023-05-03T13:08:50.313Z,24.69
2023-05-03T13:11:20.458Z,23.81
2023-05-03T13:13:49.571Z,21.60
2023-05-03T13:16:20.787Z,21.07
2023-05-03T13:18:55.300Z,21.80
2023-05-03T13:21:28.297Z,20.90
2023-05-03T13:23:58.696Z,22.08
2023-05-03T13:26:27.888Z,22.44
2023-05-03T13:28:57.548Z,23.17
2023-05-03T13:31:30.533Z,23.79
2023-05-03T13:34:01.262Z,24.63
2023-05-03T13:36:33.393Z,23.51
2023-05-03T13:39:03.702Z,23.03
2023-05-03T13:41:34.256Z,23.58
2023-05-03T13:44:04.103Z,24.46
2023-05-03T13:46:38.505Z,25.22
2023-05-03T13:49:08.884Z,24.14
2023-05-03T13:51:50.122Z,22.99
2023-05-03T13:54:19.312Z,24.77
2023-05-03T13:56:48.711Z,23.82
2023-05-03T13:59:21.278Z,23.61
2023-05-03T14:01:52.851Z,25.44
2023-05-03T14:04:24.710Z,27.46
2023-05-03T14:06:55.615Z,28.49
2023-05-03T14:09:26.642Z,27.70
2023-05-03T14:11:57.643Z,28.84
2023-05-03T14:14:28.589Z,29.23
2023-05-03T14:16:59.096Z,29.52
2023-05-03T14:19:29.436Z,30.14
2023-05-03T14:21:59.683Z,30.94
2023-05-03T14:24:28.886Z,29.87
2023-05-03T14:27:00.046Z,30.21
2023-05-03T14:29:29.210Z,30.17
2023-05-03T14:32:01.214Z,30.77
2023-05-03T14:34:31.173Z,31.16
2023-05-03T14:37:00.468Z,31.89
2023-05-03T14:39:30.837Z,31.66
2023-05-03T14:42:03.388Z,32.83
2023-05-03T14:44:32.517Z,32.54
2023-05-03T14:47:04.070Z,32.98
2023-05-03T14:49:38.421Z,33.52
2023-05-03T14:52:07.883Z,34.13
2023-05-03T14:54:37.004Z,33.40
2023-05-03T14:57:07.686Z,32.86
2023-05-03T14:59:37.076Z,33.74
2023-05-03T15:02:08.593Z,34.08
2023-05-03T15:04:39.255Z,34.20
2023-05-03T15:07:09.635Z,34.70
2023-05-03T15:09:39.335Z,33.74
2023-05-03T15:12:08.841Z,33.87
2023-05-03T15:14:37.957Z,33.64
2023-05-03T15:17:08.588Z,34.05
2023-05-03T15:19:38.449Z,33.83
2023-05-03T15:22:08.539Z,33.65
2023-05-03T15:24:37.698Z,33.28
2023-05-03T15:27:06.978Z,34.05
2023-05-03T15:29:36.492Z,34.06
2023-05-03T15:32:06.596Z,33.76
2023-05-03T15:34:37.479Z,34.50
2023-05-03T15:37:07.271Z,34.58
2023-05-03T15:39:40.163Z,34.36
2023-05-03T15:42:09.900Z,34.62
2023-05-03T15:44:39.493Z,35.12
2023-05-03T15:47:09.386Z,34.77
2023-05-03T15:49:41.100Z,34.91
2023-05-03T15:52:12.954Z,34.77
2023-05-03T15:54:42.809Z,34.82
2023-05-03T15:57:12.125Z,35.64
2023-05-03T15:59:41.788Z,35.19
2023-05-03T16:02:11.515Z,35.66
2023-05-03T16:04:45.629Z,35.71
2023-05-03T16:07:15.663Z,36.30
2023-05-03T16:09:46.545Z,36.61
2023-05-03T16:12:17.010Z,36.65
2023-05-03T16:14:46.808Z,37.38
2023-05-03T16:17:16.725Z,37.83
2023-05-03T16:19:47.692Z,38.64
2023-05-03T16:22:17.188Z,38.94
2023-05-03T16:24:46.957Z,39.66
2023-05-03T16:27:16.417Z,39.40
2023-05-03T16:29:46.655Z,40.06
2023-05-03T16:32:16.877Z,39.87
2023-05-03T16:34:49.100Z,40.22
2023-05-03T16:37:20.015Z,39.92
2023-05-03T16:39:49.745Z,40.67
2023-05-03T16:42:19.388Z,41.10
2023-05-03T16:44:48.900Z,41.82
2023-05-03T16:47:18.334Z,41.71
2023-05-03T16:49:49.244Z,42.82
2023-05-03T16:52:18.409Z,44.20
2023-05-03T16:54:48.092Z,44.93
2023-05-03T16:57:17.827Z,45.97
2023-05-03T16:59:47.345Z,46.44
2023-05-03T17:02:16.979Z,47.79
2023-05-03T17:04:46.835Z,47.92
2023-05-03T17:07:18.161Z,48.54
2023-05-03T17:09:47.517Z,49.24
2023-05-03T17:12:19.765Z,49.67
2023-05-03T17:14:49.191Z,49.91
2023-05-03T17:17:18.892Z,50.01
2023-05-03T17:19:48.663Z,50.67
2023-05-03T17:22:22.549Z,51.79
2023-05-03T17:24:55.444Z,54.73
2023-05-03T17:27:25.488Z,62.89
2023-05-03T17:29:57.412Z,83.82
2023-05-03T17:32:27.177Z,100.00
2023-05-03T17:34:56.975Z,100.00
2023-05-03T17:37:28.685Z,100.00
2023-05-03T17:39:58.253Z,100.00
2023-05-03T17:42:27.838Z,100.00
2023-05-03T17:44:58.093Z,100.00
2023-05-03T17:47:27.692Z,100.00
2023-05-03T17:49:56.989Z,100.00
2023-05-03T17:52:27.903Z,100.00
2023-05-03T17:54:58.610Z,100.00
2023-05-03T17:57:29.256Z,100.00
2023-05-03T17:59:59.853Z,100.00
2023-05-03T18:02:31.227Z,100.00
2023-05-03T18:05:01.116Z,100.00
2023-05-03T18:07:32.372Z,100.00
2023-05-03T18:10:02.043Z,100.00
2023-05-03T18:12:32.447Z,100.00
2023-05-03T18:15:02.631Z,100.00
2023-05-03T18:17:32.530Z,100.00
2023-05-03T18:20:02.301Z,100.00
2023-05-03T18:22:33.612Z,100.00
2023-05-03T18:25:06.408Z,100.00
2023-05-03T18:27:37.965Z,100.00
2023-05-03T18:30:10.635Z,100.00
2023-05-03T18:32:40.235Z,100.00
2023-05-03T18:35:10.734Z,100.00
2023-05-03T18:37:41.540Z,100.00
2023-05-03T18:40:11.491Z,100.00
2023-05-03T18:42:41.157Z,100.00
2023-05-03T18:45:12.118Z,100.00
2023-05-03T18:47:43.933Z,100.00
2023-05-03T18:50:13.910Z,100.00
2023-05-03T18:52:45.210Z,100.00
2023-05-03T18:55:17.748Z,100.00
2023-05-03T18:57:47.701Z,100.00
2023-05-03T19:00:18.694Z,100.00
2023-05-03T19:02:48.561Z,100.00
2023-05-03T19:05:18.840Z,100.00
2023-05-03T19:07:50.105Z,100.00
2023-05-03T19:10:21.125Z,100.00
2023-05-03T19:12:53.871Z,100.00
2023-05-03T19:15:23.700Z,100.00
2023-05-03T19:17:53.384Z,100.00
2023-05-03T19:20:23.349Z,100.00
2023-05-03T19:22:56.148Z,100.00
2023-05-03T19:25:26.420Z,100.00
2023-05-03T19:27:55.548Z,100.00
2023-05-03T19:30:25.363Z,100.00
2023-05-03T19:32:55.056Z,100.00
2023-05-03T19:35:24.567Z,100.00
2023-05-03T19:37:55.333Z,100.00
2023-05-03T19:40:26.122Z,100.00
2023-05-03T19:42:56.940Z,100.00
2023-05-03T19:45:26.805Z,100.00
2023-05-03T19:47:56.682Z,100.00
2023-05-03T19:50:27.797Z,100.00
2023-05-03T19:52:58.335Z,100.00
2023-05-03T19:55:30.303Z,100.00
2023-05-03T19:57:59.997Z,100.00
2023-05-03T20:00:33.122Z,100.00
2023-05-03T20:03:04.152Z,100.00
2023-05-03T20:05:33.669Z,100.00
2023-05-03T20:08:04.547Z,100.00
2023-05-03T20:10:36.403Z,100.00
2023-05-03T20:13:05.901Z,100.00
2023-05-03T20:15:37.145Z,100.00
2023-05-03T20:18:06.461Z,100.00
2023-05-03T20:20:36.682Z,100.00
2023-05-03T20:23:08.082Z,100.00
2023-05-03T20:25:37.977Z,100.00
2023-05-03T20:28:07.066Z,100.00
2023-05-03T20:30:36.447Z,100.00
2023-05-03T20:33:16.792Z,100.00
2023-05-03T20:35:46.308Z,100.00
2023-05-03T20:38:18.259Z,100.00
2023-05-03T20:40:47.888Z,100.00
2023-05-03T20:43:19.361Z,100.00
2023-05-03T20:45:48.542Z,100.00
2023-05-03T20:48:17.681Z,100.00
2023-05-03T20:50:47.761Z,100.00
2023-05-03T20:53:18.908Z,100.00
2023-05-03T20:55:48.010Z,100.00
2023-05-03T20:58:17.194Z,100.00
2023-05-03T21:00:46.901Z,100.00
2023-05-03T21:03:16.972Z,100.00
2023-05-03T21:05:46.448Z,100.00
2023-05-03T21:08:17.950Z,100.00
2023-05-03T21:10:47.333Z,100.00
2023-05-03T21:13:16.607Z,100.00
2023-05-03T21:15:45.702Z,100.00
2023-05-03T21:18:15.256Z,100.00
2023-05-03T21:20:45.402Z,100.00
2023-05-03T21:23:19.436Z,100.00
2023-05-03T21:25:50.052Z,100.00
2023-05-03T21:28:19.304Z,100.00
2023-05-03T21:30:49.259Z,100.00
2023-05-03T21:33:21.197Z,100.00
2023-05-03T21:35:50.917Z,100.00
2023-05-03T21:38:20.148Z,100.00
2023-05-03T21:40:50.623Z,100.00
2023-05-03T21:43:20.150Z,100.00
2023-05-03T21:45:50.202Z,100.00
2023-05-03T21:48:19.119Z,100.00
2023-05-03T21:50:48.394Z,100.00
2023-05-03T21:53:17.785Z,100.00
2023-05-03T21:55:47.768Z,100.00
2023-05-03T21:58:19.128Z,100.00
2023-05-03T22:00:48.110Z,100.00
2023-05-03T22:03:17.638Z,100.00
2023-05-03T22:05:48.782Z,100.00
2023-05-03T22:08:18.755Z,100.00
2023-05-03T22:10:47.800Z,100.00
2023-05-03T22:13:18.478Z,100.00
2023-05-03T22:15:47.630Z,100.00
2023-05-03T22:18:16.822Z,100.00
2023-05-03T22:20:45.992Z,100.00
2023-05-03T22:23:15.749Z,100.00
2023-05-03T22:25:46.277Z,100.00
2023-05-03T22:28:15.431Z,100.00
2023-05-03T22:30:45.977Z,100.00
2023-05-03T22:33:15.402Z,100.00
2023-05-03T22:35:44.380Z,100.00
2023-05-03T22:38:13.489Z,100.00
2023-05-03T22:40:42.534Z,100.00
2023-05-03T22:43:11.588Z,100.00
2023-05-03T22:45:40.711Z,100.00
2023-05-03T22:48:11.164Z,100.00
2023-05-03T22:50:40.614Z,100.00
2023-05-03T22:53:09.619Z,100.00
2023-05-03T22:55:38.701Z,100.00
2023-05-03T22:58:08.506Z,100.00
2023-05-03T23:00:37.607Z,100.00
2023-05-03T23:03:08.951Z,100.00
2023-05-03T23:05:39.459Z,100.00
2023-05-03T23:08:08.480Z,100.00
2023-05-03T23:10:37.566Z,100.00
2023-05-03T23:13:06.688Z,100.00
2023-05-03T23:15:36.168Z,100.00
2023-05-03T23:18:05.681Z,100.00
2023-05-03T23:20:35.089Z,100.00
2023-05-03T23:23:05.412Z,100.00
2023-05-03T23:25:34.916Z,100.00
2023-05-03T23:28:04.054Z,100.00
2023-05-03T23:30:33.469Z,100.00
2023-05-03T23:33:02.893Z,100.00
2023-05-03T23:35:32.860Z,100.00
2023-05-03T23:38:01.914Z,100.00
2023-05-03T23:40:32.377Z,100.00
2023-05-03T23:43:01.588Z,100.00
2023-05-03T23:45:30.676Z,100.00
2023-05-03T23:47:59.793Z,100.00
2023-05-03T23:50:29.031Z,100.00
2023-05-03T23:52:58.707Z,100.00
2023-05-03T23:55:27.747Z,100.00
2023-05-03T23:57:58.189Z,100.00
